sensor_id;sensor_type;location;lat;lon;timestamp;pressure;altitude;pressure_sealevel;temperature;humidity
64711;BME280;51139;45.626;6.850;2023-02-28T00:00:24;81369.94;;;-4.21;54.96
64711;BME280;51139;45.626;6.850;2023-02-28T00:02:50;81376.84;;;-4.04;55.20
64711;BME280;51139;45.626;6.850;2023-02-28T00:05:19;81381.97;;;-4.29;55.65
64711;BME280;51139;45.626;6.850;2023-02-28T00:07:45;81374.47;;;-4.69;57.87
64711;BME280;51139;45.626;6.850;2023-02-28T00:10:13;81369.66;;;-4.54;57.39
64711;BME280;51139;45.626;6.850;2023-02-28T00:12:39;81384.53;;;-4.23;56.22
64711;BME280;51139;45.626;6.850;2023-02-28T00:15:10;81390.34;;;-4.48;56.59
64711;BME280;51139;45.626;6.850;2023-02-28T00:17:36;81389.63;;;-4.12;55.98
64711;BME280;51139;45.626;6.850;2023-02-28T00:20:02;81388.31;;;-3.94;54.84
64711;BME280;51139;45.626;6.850;2023-02-28T00:22:28;81377.75;;;-4.27;55.80
64711;BME280;51139;45.626;6.850;2023-02-28T00:24:54;81389.66;;;-4.18;55.94
64711;BME280;51139;45.626;6.850;2023-02-28T00:27:19;81391.72;;;-4.41;55.63
64711;BME280;51139;45.626;6.850;2023-02-28T00:29:46;81393.28;;;-4.32;56.40
64711;BME280;51139;45.626;6.850;2023-02-28T00:32:11;81391.03;;;-4.47;56.53
64711;BME280;51139;45.626;6.850;2023-02-28T00:34:37;81388.16;;;-4.07;55.30
64711;BME280;51139;45.626;6.850;2023-02-28T00:37:07;81391.13;;;-4.22;55.47
64711;BME280;51139;45.626;6.850;2023-02-28T00:39:37;81385.41;;;-4.15;54.92
64711;BME280;51139;45.626;6.850;2023-02-28T00:42:03;81391.13;;;-4.28;55.22
64711;BME280;51139;45.626;6.850;2023-02-28T00:44:29;81395.72;;;-4.10;55.27
64711;BME280;51139;45.626;6.850;2023-02-28T00:46:54;81386.81;;;-3.84;52.93
64711;BME280;51139;45.626;6.850;2023-02-28T00:49:20;81393.31;;;-4.02;55.02
64711;BME280;51139;45.626;6.850;2023-02-28T00:51:46;81397.88;;;-3.83;52.22
64711;BME280;51139;45.626;6.850;2023-02-28T00:54:12;81395.69;;;-3.73;50.79
64711;BME280;51139;45.626;6.850;2023-02-28T00:56:37;81396.25;;;-3.86;52.15
64711;BME280;51139;45.626;6.850;2023-02-28T00:59:02;81389.09;;;-4.05;53.12
64711;BME280;51139;45.626;6.850;2023-02-28T01:01:28;81393.94;;;-4.26;53.90
64711;BME280;51139;45.626;6.850;2023-02-28T01:03:53;81404.84;;;-4.39;54.42
64711;BME280;51139;45.626;6.850;2023-02-28T01:06:19;81409.25;;;-4.28;54.25
64711;BME280;51139;45.626;6.850;2023-02-28T01:08:44;81405.19;;;-4.18;54.98
64711;BME280;51139;45.626;6.850;2023-02-28T01:11:11;81409.47;;;-4.26;55.41
64711;BME280;51139;45.626;6.850;2023-02-28T01:13:37;81407.25;;;-4.11;54.83
64711;BME280;51139;45.626;6.850;2023-02-28T01:16:03;81406.72;;;-4.03;54.14
64711;BME280;51139;45.626;6.850;2023-02-28T01:18:29;81410.91;;;-3.94;55.09
64711;BME280;51139;45.626;6.850;2023-02-28T01:20:54;81412.50;;;-4.22;55.53
64711;BME280;51139;45.626;6.850;2023-02-28T01:23:21;81401.72;;;-4.26;55.73
64711;BME280;51139;45.626;6.850;2023-02-28T01:25:49;81401.91;;;-3.88;54.13
64711;BME280;51139;45.626;6.850;2023-02-28T01:28:15;81409.59;;;-4.07;54.27
64711;BME280;51139;45.626;6.850;2023-02-28T01:30:40;81417.28;;;-4.01;53.85
64711;BME280;51139;45.626;6.850;2023-02-28T01:33:06;81409.19;;;-3.86;54.29
64711;BME280;51139;45.626;6.850;2023-02-28T01:35:35;81415.63;;;-3.99;54.16
64711;BME280;51139;45.626;6.850;2023-02-28T01:38:01;81417.75;;;-3.97;54.80
64711;BME280;51139;45.626;6.850;2023-02-28T01:40:27;81415.22;;;-4.08;54.10
64711;BME280;51139;45.626;6.850;2023-02-28T01:42:52;81410.72;;;-4.02;53.40
64711;BME280;51139;45.626;6.850;2023-02-28T01:45:29;81411.53;;;-3.83;53.11
64711;BME280;51139;45.626;6.850;2023-02-28T01:48:02;81405.69;;;-3.89;53.30
64711;BME280;51139;45.626;6.850;2023-02-28T01:50:32;81408.94;;;-3.83;52.33
64711;BME280;51139;45.626;6.850;2023-02-28T01:53:02;81412.94;;;-3.57;50.88
64711;BME280;51139;45.626;6.850;2023-02-28T01:55:30;81412.00;;;-3.84;51.32
64711;BME280;51139;45.626;6.850;2023-02-28T01:57:59;81416.59;;;-3.71;52.40
64711;BME280;51139;45.626;6.850;2023-02-28T02:00:26;81406.81;;;-3.84;52.33
64711;BME280;51139;45.626;6.850;2023-02-28T02:03:00;81409.53;;;-4.01;53.50
64711;BME280;51139;45.626;6.850;2023-02-28T02:05:28;81413.53;;;-4.36;55.19
64711;BME280;51139;45.626;6.850;2023-02-28T02:07:58;81414.00;;;-4.02;54.04
64711;BME280;51139;45.626;6.850;2023-02-28T02:27:06;81413.16;;;-4.16;53.41
64711;BME280;51139;45.626;6.850;2023-02-28T02:29:51;81411.25;;;-3.79;52.09
64711;BME280;51139;45.626;6.850;2023-02-28T02:35:37;81418.16;;;-3.62;52.22
64711;BME280;51139;45.626;6.850;2023-02-28T02:38:10;81418.31;;;-3.79;51.46
64711;BME280;51139;45.626;6.850;2023-02-28T02:43:36;81415.94;;;-3.77;51.78
64711;BME280;51139;45.626;6.850;2023-02-28T02:46:07;81414.03;;;-3.71;51.35
64711;BME280;51139;45.626;6.850;2023-02-28T02:48:38;81417.81;;;-3.78;50.96
64711;BME280;51139;45.626;6.850;2023-02-28T02:51:07;81419.53;;;-3.86;52.09
64711;BME280;51139;45.626;6.850;2023-02-28T02:53:42;81416.06;;;-3.64;50.99
64711;BME280;51139;45.626;6.850;2023-02-28T02:56:10;81408.47;;;-3.56;50.44
64711;BME280;51139;45.626;6.850;2023-02-28T02:58:39;81420.47;;;-3.53;50.65
64711;BME280;51139;45.626;6.850;2023-02-28T03:01:10;81414.56;;;-3.78;51.79
64711;BME280;51139;45.626;6.850;2023-02-28T03:03:37;81401.53;;;-3.73;51.05
64711;BME280;51139;45.626;6.850;2023-02-28T03:06:03;81401.38;;;-3.81;51.84
64711;BME280;51139;45.626;6.850;2023-02-28T03:08:34;81405.69;;;-3.89;52.49
64711;BME280;51139;45.626;6.850;2023-02-28T03:11:03;81401.44;;;-3.86;52.69
64711;BME280;51139;45.626;6.850;2023-02-28T03:24:30;81394.72;;;-4.01;53.06
64711;BME280;51139;45.626;6.850;2023-02-28T03:27:06;81400.56;;;-4.00;52.60
64711;BME280;51139;45.626;6.850;2023-02-28T03:29:35;81406.44;;;-3.94;52.73
64711;BME280;51139;45.626;6.850;2023-02-28T03:32:08;81395.28;;;-3.83;52.53
64711;BME280;51139;45.626;6.850;2023-02-28T03:34:42;81396.53;;;-3.90;52.73
64711;BME280;51139;45.626;6.850;2023-02-28T03:37:15;81396.19;;;-4.11;53.62
64711;BME280;51139;45.626;6.850;2023-02-28T03:39:59;81393.56;;;-4.05;52.40
64711;BME280;51139;45.626;6.850;2023-02-28T03:42:29;81405.47;;;-3.91;51.42
64711;BME280;51139;45.626;6.850;2023-02-28T03:44:57;81404.28;;;-3.90;51.92
64711;BME280;51139;45.626;6.850;2023-02-28T03:47:30;81397.53;;;-3.99;52.57
64711;BME280;51139;45.626;6.850;2023-02-28T03:50:39;81399.41;;;-4.30;53.64
64711;BME280;51139;45.626;6.850;2023-02-28T03:53:24;81407.66;;;-4.01;53.28
64711;BME280;51139;45.626;6.850;2023-02-28T03:56:06;81394.22;;;-3.99;52.85
64711;BME280;51139;45.626;6.850;2023-02-28T03:59:10;81402.88;;;-3.91;51.37
64711;BME280;51139;45.626;6.850;2023-02-28T04:01:41;81392.66;;;-3.77;51.46
64711;BME280;51139;45.626;6.850;2023-02-28T04:04:10;81401.91;;;-3.88;51.59
64711;BME280;51139;45.626;6.850;2023-02-28T04:06:36;81395.03;;;-3.79;51.06
64711;BME280;51139;45.626;6.850;2023-02-28T04:09:03;81393.34;;;-3.77;50.54
64711;BME280;51139;45.626;6.850;2023-02-28T04:13:58;81389.44;;;-3.89;52.08
64711;BME280;51139;45.626;6.850;2023-02-28T04:16:23;81399.41;;;-3.99;52.11
64711;BME280;51139;45.626;6.850;2023-02-28T04:18:48;81394.63;;;-3.89;52.82
64711;BME280;51139;45.626;6.850;2023-02-28T04:21:14;81398.94;;;-3.98;51.40
64711;BME280;51139;45.626;6.850;2023-02-28T04:23:40;81388.59;;;-4.03;52.34
64711;BME280;51139;45.626;6.850;2023-02-28T04:26:06;81389.56;;;-4.06;51.44
64711;BME280;51139;45.626;6.850;2023-02-28T04:28:32;81382.94;;;-3.96;52.15
64711;BME280;51139;45.626;6.850;2023-02-28T04:31:04;81381.00;;;-4.26;54.40
64711;BME280;51139;45.626;6.850;2023-02-28T04:33:30;81380.94;;;-4.93;57.00
64711;BME280;51139;45.626;6.850;2023-02-28T04:36:02;81374.03;;;-4.73;57.08
64711;BME280;51139;45.626;6.850;2023-02-28T04:38:38;81390.47;;;-4.71;56.89
64711;BME280;51139;45.626;6.850;2023-02-28T04:41:04;81394.59;;;-4.20;54.23
64711;BME280;51139;45.626;6.850;2023-02-28T04:43:30;81409.75;;;-4.35;54.31
64711;BME280;51139;45.626;6.850;2023-02-28T04:45:57;81406.34;;;-4.19;53.30
64711;BME280;51139;45.626;6.850;2023-02-28T04:48:24;81396.59;;;-4.37;53.43
64711;BME280;51139;45.626;6.850;2023-02-28T04:50:50;81401.75;;;-4.01;51.30
64711;BME280;51139;45.626;6.850;2023-02-28T04:53:15;81398.78;;;-4.11;52.03
64711;BME280;51139;45.626;6.850;2023-02-28T04:55:41;81398.06;;;-4.12;53.09
64711;BME280;51139;45.626;6.850;2023-02-28T04:58:06;81401.84;;;-4.13;53.53
64711;BME280;51139;45.626;6.850;2023-02-28T05:00:32;81400.06;;;-4.23;53.01
64711;BME280;51139;45.626;6.850;2023-02-28T05:02:57;81413.28;;;-4.33;54.40
64711;BME280;51139;45.626;6.850;2023-02-28T05:05:22;81400.91;;;-4.46;53.96
64711;BME280;51139;45.626;6.850;2023-02-28T05:07:48;81396.16;;;-4.42;53.84
64711;BME280;51139;45.626;6.850;2023-02-28T05:10:13;81405.69;;;-4.61;55.51
64711;BME280;51139;45.626;6.850;2023-02-28T05:12:39;81408.84;;;-4.80;57.36
64711;BME280;51139;45.626;6.850;2023-02-28T05:15:05;81396.47;;;-4.57;55.16
64711;BME280;51139;45.626;6.850;2023-02-28T05:17:30;81402.28;;;-4.81;56.87
64711;BME280;51139;45.626;6.850;2023-02-28T05:19:56;81396.38;;;-4.76;57.28
64711;BME280;51139;45.626;6.850;2023-02-28T05:22:22;81408.16;;;-4.44;55.16
64711;BME280;51139;45.626;6.850;2023-02-28T05:24:47;81406.13;;;-4.21;54.01
64711;BME280;51139;45.626;6.850;2023-02-28T05:27:13;81401.22;;;-4.61;55.14
64711;BME280;51139;45.626;6.850;2023-02-28T05:29:38;81397.59;;;-4.46;54.36
64711;BME280;51139;45.626;6.850;2023-02-28T05:32:10;81404.50;;;-4.24;55.76
64711;BME280;51139;45.626;6.850;2023-02-28T05:34:37;81404.22;;;-4.51;53.93
64711;BME280;51139;45.626;6.850;2023-02-28T05:37:03;81401.47;;;-4.64;55.64
64711;BME280;51139;45.626;6.850;2023-02-28T05:39:28;81399.41;;;-4.35;53.12
64711;BME280;51139;45.626;6.850;2023-02-28T05:41:54;81395.56;;;-4.59;53.83
64711;BME280;51139;45.626;6.850;2023-02-28T05:44:19;81397.88;;;-4.56;54.87
64711;BME280;51139;45.626;6.850;2023-02-28T05:46:45;81396.31;;;-4.64;55.18
64711;BME280;51139;45.626;6.850;2023-02-28T05:49:10;81401.94;;;-4.66;54.78
64711;BME280;51139;45.626;6.850;2023-02-28T05:51:35;81403.06;;;-4.56;55.17
64711;BME280;51139;45.626;6.850;2023-02-28T05:54:05;81418.56;;;-4.56;54.71
64711;BME280;51139;45.626;6.850;2023-02-28T05:56:30;81401.28;;;-4.72;54.99
64711;BME280;51139;45.626;6.850;2023-02-28T05:58:56;81409.09;;;-4.42;53.57
64711;BME280;51139;45.626;6.850;2023-02-28T06:01:42;81412.78;;;-4.31;52.55
64711;BME280;51139;45.626;6.850;2023-02-28T06:04:13;81404.50;;;-4.24;52.36
64711;BME280;51139;45.626;6.850;2023-02-28T06:06:46;81403.03;;;-4.14;52.06
64711;BME280;51139;45.626;6.850;2023-02-28T06:09:11;81406.59;;;-4.17;51.48
64711;BME280;51139;45.626;6.850;2023-02-28T06:11:37;81409.63;;;-3.82;50.24
64711;BME280;51139;45.626;6.850;2023-02-28T06:14:03;81409.06;;;-4.00;51.31
64711;BME280;51139;45.626;6.850;2023-02-28T06:16:30;81405.06;;;-4.01;52.79
64711;BME280;51139;45.626;6.850;2023-02-28T06:19:00;81417.16;;;-3.84;51.62
64711;BME280;51139;45.626;6.850;2023-02-28T06:21:29;81416.81;;;-4.00;52.50
64711;BME280;51139;45.626;6.850;2023-02-28T06:23:56;81418.47;;;-4.02;52.10
64711;BME280;51139;45.626;6.850;2023-02-28T06:26:22;81411.31;;;-3.85;51.11
64711;BME280;51139;45.626;6.850;2023-02-28T06:28:48;81424.16;;;-3.73;50.94
64711;BME280;51139;45.626;6.850;2023-02-28T06:31:16;81421.81;;;-3.77;51.23
64711;BME280;51139;45.626;6.850;2023-02-28T06:33:42;81422.97;;;-4.39;52.98
64711;BME280;51139;45.626;6.850;2023-02-28T06:36:09;81424.38;;;-4.38;53.82
64711;BME280;51139;45.626;6.850;2023-02-28T06:38:35;81411.03;;;-4.54;53.49
64711;BME280;51139;45.626;6.850;2023-02-28T06:41:01;81413.81;;;-4.40;52.94
64711;BME280;51139;45.626;6.850;2023-02-28T06:43:32;81421.56;;;-4.40;52.28
64711;BME280;51139;45.626;6.850;2023-02-28T06:46:00;81428.69;;;-4.16;52.56
64711;BME280;51139;45.626;6.850;2023-02-28T06:48:27;81417.41;;;-4.18;52.29
64711;BME280;51139;45.626;6.850;2023-02-28T06:51:01;81419.41;;;-4.36;52.93
64711;BME280;51139;45.626;6.850;2023-02-28T06:53:26;81411.09;;;-4.59;53.68
64711;BME280;51139;45.626;6.850;2023-02-28T06:55:52;81426.25;;;-4.44;53.76
64711;BME280;51139;45.626;6.850;2023-02-28T06:58:17;81415.72;;;-4.10;52.29
64711;BME280;51139;45.626;6.850;2023-02-28T07:00:44;81424.75;;;-4.22;52.24
64711;BME280;51139;45.626;6.850;2023-02-28T07:03:11;81419.81;;;-4.26;52.51
64711;BME280;51139;45.626;6.850;2023-02-28T07:05:37;81418.56;;;-3.83;51.95
64711;BME280;51139;45.626;6.850;2023-02-28T07:08:04;81422.25;;;-4.03;52.63
64711;BME280;51139;45.626;6.850;2023-02-28T07:10:32;81421.13;;;-4.08;52.86
64711;BME280;51139;45.626;6.850;2023-02-28T07:12:58;81434.56;;;-4.15;53.51
64711;BME280;51139;45.626;6.850;2023-02-28T07:15:23;81418.47;;;-4.02;53.87
64711;BME280;51139;45.626;6.850;2023-02-28T07:17:48;81424.50;;;-3.58;50.93
64711;BME280;51139;45.626;6.850;2023-02-28T07:20:14;81428.88;;;-2.53;48.81
64711;BME280;51139;45.626;6.850;2023-02-28T07:22:39;81428.25;;;-2.40;48.06
64711;BME280;51139;45.626;6.850;2023-02-28T07:25:05;81429.09;;;-2.95;49.64
64711;BME280;51139;45.626;6.850;2023-02-28T07:27:31;81430.41;;;-2.25;49.40
64711;BME280;51139;45.626;6.850;2023-02-28T07:29:56;81434.63;;;-2.22;48.10
64711;BME280;51139;45.626;6.850;2023-02-28T07:32:22;81433.63;;;-1.81;48.56
64711;BME280;51139;45.626;6.850;2023-02-28T07:34:47;81435.03;;;-1.80;46.83
64711;BME280;51139;45.626;6.850;2023-02-28T07:37:14;81438.97;;;-2.11;47.86
64711;BME280;51139;45.626;6.850;2023-02-28T07:39:39;81446.25;;;-1.91;46.90
64711;BME280;51139;45.626;6.850;2023-02-28T07:42:07;81447.19;;;-1.88;47.15
64711;BME280;51139;45.626;6.850;2023-02-28T07:44:35;81447.59;;;-1.84;47.09
64711;BME280;51139;45.626;6.850;2023-02-28T07:47:08;81441.06;;;-2.48;47.85
64711;BME280;51139;45.626;6.850;2023-02-28T07:49:35;81446.59;;;-1.81;46.90
64711;BME280;51139;45.626;6.850;2023-02-28T07:52:02;81436.69;;;-1.04;45.84
64711;BME280;51139;45.626;6.850;2023-02-28T07:54:27;81442.31;;;-1.78;46.17
64711;BME280;51139;45.626;6.850;2023-02-28T07:56:53;81438.03;;;-1.76;47.41
64711;BME280;51139;45.626;6.850;2023-02-28T07:59:18;81433.16;;;-1.33;46.71
64711;BME280;51139;45.626;6.850;2023-02-28T08:01:44;81436.31;;;-2.06;47.21
64711;BME280;51139;45.626;6.850;2023-02-28T08:04:09;81437.78;;;-1.26;46.09
64711;BME280;51139;45.626;6.850;2023-02-28T08:06:35;81432.78;;;-1.89;46.93
64711;BME280;51139;45.626;6.850;2023-02-28T08:09:00;81438.31;;;-1.47;47.22
64711;BME280;51139;45.626;6.850;2023-02-28T08:11:26;81440.16;;;-1.74;47.37
64711;BME280;51139;45.626;6.850;2023-02-28T08:13:51;81425.22;;;-2.06;47.75
64711;BME280;51139;45.626;6.850;2023-02-28T08:16:17;81426.41;;;-0.96;44.85
64711;BME280;51139;45.626;6.850;2023-02-28T08:18:48;81424.75;;;-0.66;45.08
64711;BME280;51139;45.626;6.850;2023-02-28T08:21:13;81417.53;;;-0.47;44.20
64711;BME280;51139;45.626;6.850;2023-02-28T08:23:38;81431.34;;;-1.38;45.37
64711;BME280;51139;45.626;6.850;2023-02-28T08:26:04;81438.03;;;-0.97;43.70
64711;BME280;51139;45.626;6.850;2023-02-28T08:28:29;81434.34;;;-0.61;44.63
64711;BME280;51139;45.626;6.850;2023-02-28T08:30:55;81433.72;;;-0.27;43.84
64711;BME280;51139;45.626;6.850;2023-02-28T08:33:21;81440.22;;;-0.88;45.08
64711;BME280;51139;45.626;6.850;2023-02-28T08:35:46;81445.44;;;0.28;42.30
64711;BME280;51139;45.626;6.850;2023-02-28T08:38:12;81450.53;;;1.40;40.06
64711;BME280;51139;45.626;6.850;2023-02-28T08:40:37;81440.06;;;0.12;41.36
64711;BME280;51139;45.626;6.850;2023-02-28T08:43:02;81449.06;;;1.02;41.53
64711;BME280;51139;45.626;6.850;2023-02-28T08:45:28;81445.50;;;0.92;41.02
64711;BME280;51139;45.626;6.850;2023-02-28T08:47:56;81449.25;;;0.62;39.55
64711;BME280;51139;45.626;6.850;2023-02-28T08:50:22;81452.91;;;1.30;40.00
64711;BME280;51139;45.626;6.850;2023-02-28T08:52:47;81459.88;;;1.56;39.99
64711;BME280;51139;45.626;6.850;2023-02-28T08:55:13;81446.84;;;0.29;41.34
64711;BME280;51139;45.626;6.850;2023-02-28T08:57:38;81451.28;;;0.42;41.03
64711;BME280;51139;45.626;6.850;2023-02-28T09:00:04;81465.22;;;0.45;41.08
64711;BME280;51139;45.626;6.850;2023-02-28T09:02:33;81460.59;;;0.51;41.59
64711;BME280;51139;45.626;6.850;2023-02-28T09:04:58;81465.34;;;0.95;40.56
64711;BME280;51139;45.626;6.850;2023-02-28T09:07:24;81461.03;;;0.41;42.34
64711;BME280;51139;45.626;6.850;2023-02-28T09:09:50;81470.75;;;0.41;42.50
64711;BME280;51139;45.626;6.850;2023-02-28T09:12:27;81467.22;;;1.37;40.65
64711;BME280;51139;45.626;6.850;2023-02-28T09:14:53;81473.72;;;0.58;42.79
64711;BME280;51139;45.626;6.850;2023-02-28T09:17:19;81477.34;;;-0.06;42.98
64711;BME280;51139;45.626;6.850;2023-02-28T09:19:45;81472.56;;;0.33;42.61
64711;BME280;51139;45.626;6.850;2023-02-28T09:22:12;81486.88;;;0.39;42.70
64711;BME280;51139;45.626;6.850;2023-02-28T09:24:38;81479.75;;;-0.08;42.30
64711;BME280;51139;45.626;6.850;2023-02-28T09:27:04;81487.69;;;-0.14;41.52
64711;BME280;51139;45.626;6.850;2023-02-28T09:29:30;81478.25;;;0.45;42.59
64711;BME280;51139;45.626;6.850;2023-02-28T09:31:56;81476.53;;;0.82;41.57
64711;BME280;51139;45.626;6.850;2023-02-28T09:34:24;81491.25;;;-0.57;43.45
64711;BME280;51139;45.626;6.850;2023-02-28T09:36:49;81480.66;;;-0.60;43.32
64711;BME280;51139;45.626;6.850;2023-02-28T09:39:20;81502.22;;;-1.38;44.83
64711;BME280;51139;45.626;6.850;2023-02-28T09:41:51;81493.25;;;0.04;42.24
64711;BME280;51139;45.626;6.850;2023-02-28T09:44:28;81500.38;;;-0.10;42.27
64711;BME280;51139;45.626;6.850;2023-02-28T09:47:14;81499.97;;;-0.01;42.28
64711;BME280;51139;45.626;6.850;2023-02-28T09:49:46;81495.97;;;-1.15;42.95
64711;BME280;51139;45.626;6.850;2023-02-28T09:52:21;81488.28;;;-1.73;45.37
64711;BME280;51139;45.626;6.850;2023-02-28T09:54:48;81496.38;;;-1.25;43.58
64711;BME280;51139;45.626;6.850;2023-02-28T10:00:01;81497.91;;;-1.87;45.58
64711;BME280;51139;45.626;6.850;2023-02-28T10:05:18;81509.84;;;-0.80;44.50
64711;BME280;51139;45.626;6.850;2023-02-28T10:08:01;81504.28;;;-0.57;44.33
64711;BME280;51139;45.626;6.850;2023-02-28T10:10:48;81501.06;;;-1.23;44.71
64711;BME280;51139;45.626;6.850;2023-02-28T10:13:58;81492.84;;;-0.81;44.66
64711;BME280;51139;45.626;6.850;2023-02-28T10:16:35;81499.25;;;-1.48;45.40
64711;BME280;51139;45.626;6.850;2023-02-28T10:19:35;81500.25;;;-1.51;46.61
64711;BME280;51139;45.626;6.850;2023-02-28T10:22:11;81503.75;;;-1.29;45.31
64711;BME280;51139;45.626;6.850;2023-02-28T10:24:48;81483.22;;;-1.65;46.93
64711;BME280;51139;45.626;6.850;2023-02-28T10:27:18;81507.00;;;-1.42;46.53
64711;BME280;51139;45.626;6.850;2023-02-28T10:29:46;81500.75;;;-1.52;47.36
64711;BME280;51139;45.626;6.850;2023-02-28T10:32:19;81503.50;;;-2.02;48.12
64711;BME280;51139;45.626;6.850;2023-02-28T10:34:51;81505.75;;;-1.54;46.83
64711;BME280;51139;45.626;6.850;2023-02-28T10:37:19;81508.75;;;-1.31;46.00
64711;BME280;51139;45.626;6.850;2023-02-28T10:39:46;81512.66;;;-1.95;46.81
64711;BME280;51139;45.626;6.850;2023-02-28T10:45:05;81523.72;;;-2.14;46.92
64711;BME280;51139;45.626;6.850;2023-02-28T10:47:32;81526.88;;;-1.83;45.65
64711;BME280;51139;45.626;6.850;2023-02-28T10:49:59;81514.97;;;-1.21;45.11
64711;BME280;51139;45.626;6.850;2023-02-28T10:52:40;81524.38;;;-0.85;45.23
64711;BME280;51139;45.626;6.850;2023-02-28T10:55:20;81526.44;;;-1.49;46.89
64711;BME280;51139;45.626;6.850;2023-02-28T10:57:47;81536.44;;;-1.91;46.39
64711;BME280;51139;45.626;6.850;2023-02-28T11:00:18;81525.97;;;-1.66;46.13
64711;BME280;51139;45.626;6.850;2023-02-28T11:02:44;81504.72;;;-1.65;46.61
64711;BME280;51139;45.626;6.850;2023-02-28T11:05:35;81521.75;;;-1.50;47.72
64711;BME280;51139;45.626;6.850;2023-02-28T11:08:18;81520.44;;;-1.76;46.14
64711;BME280;51139;45.626;6.850;2023-02-28T11:10:53;81524.41;;;-1.37;45.57
64711;BME280;51139;45.626;6.850;2023-02-28T11:13:21;81522.66;;;-1.48;46.78
64711;BME280;51139;45.626;6.850;2023-02-28T11:15:53;81516.22;;;-1.98;47.16
64711;BME280;51139;45.626;6.850;2023-02-28T11:21:08;81520.78;;;-2.04;48.75
64711;BME280;51139;45.626;6.850;2023-02-28T11:23:36;81519.78;;;-1.63;46.66
64711;BME280;51139;45.626;6.850;2023-02-28T11:26:05;81534.16;;;-1.81;46.84
64711;BME280;51139;45.626;6.850;2023-02-28T11:28:37;81529.19;;;-1.60;47.48
64711;BME280;51139;45.626;6.850;2023-02-28T11:38:45;81527.94;;;-1.92;46.97
64711;BME280;51139;45.626;6.850;2023-02-28T11:46:47;81514.63;;;-2.45;49.81
64711;BME280;51139;45.626;6.850;2023-02-28T11:49:34;81511.41;;;-1.56;48.60
64711;BME280;51139;45.626;6.850;2023-02-28T11:54:50;81508.72;;;-1.64;47.71
64711;BME280;51139;45.626;6.850;2023-02-28T11:57:40;81516.84;;;-1.92;47.78
64711;BME280;51139;45.626;6.850;2023-02-28T12:06:03;81511.63;;;-1.35;47.78
64711;BME280;51139;45.626;6.850;2023-02-28T12:11:48;81513.34;;;-1.95;48.99
64711;BME280;51139;45.626;6.850;2023-02-28T12:17:19;81510.53;;;-1.78;48.04
64711;BME280;51139;45.626;6.850;2023-02-28T12:25:48;81515.78;;;-1.12;46.91
64711;BME280;51139;45.626;6.850;2023-02-28T12:28:19;81523.66;;;-1.18;46.77
64711;BME280;51139;45.626;6.850;2023-02-28T12:30:58;81518.28;;;-1.07;46.73
64711;BME280;51139;45.626;6.850;2023-02-28T12:33:31;81510.66;;;-0.72;45.02
64711;BME280;51139;45.626;6.850;2023-02-28T12:36:02;81520.28;;;-1.13;47.61
64711;BME280;51139;45.626;6.850;2023-02-28T12:38:33;81511.06;;;-1.47;47.14
64711;BME280;51139;45.626;6.850;2023-02-28T12:41:13;81515.41;;;-1.03;46.20
64711;BME280;51139;45.626;6.850;2023-02-28T12:43:57;81510.28;;;-1.41;47.59
64711;BME280;51139;45.626;6.850;2023-02-28T12:46:28;81512.84;;;-1.22;47.51
64711;BME280;51139;45.626;6.850;2023-02-28T12:48:59;81507.50;;;-1.82;47.70
64711;BME280;51139;45.626;6.850;2023-02-28T12:51:26;81505.16;;;-1.47;48.56
64711;BME280;51139;45.626;6.850;2023-02-28T12:54:14;81498.94;;;-1.77;49.16
64711;BME280;51139;45.626;6.850;2023-02-28T12:56:56;81502.38;;;-1.49;47.84
64711;BME280;51139;45.626;6.850;2023-02-28T13:07:54;81495.88;;;-1.42;49.83
64711;BME280;51139;45.626;6.850;2023-02-28T13:10:23;81501.22;;;-1.35;49.21
64711;BME280;51139;45.626;6.850;2023-02-28T13:12:50;81488.41;;;-1.84;48.87
64711;BME280;51139;45.626;6.850;2023-02-28T13:17:49;81487.09;;;-1.72;49.54
64711;BME280;51139;45.626;6.850;2023-02-28T13:20:37;81490.22;;;-1.60;48.49
64711;BME280;51139;45.626;6.850;2023-02-28T13:26:07;81483.50;;;-1.36;48.28
64711;BME280;51139;45.626;6.850;2023-02-28T13:31:18;81490.84;;;-1.21;47.71
64711;BME280;51139;45.626;6.850;2023-02-28T13:38:45;81487.84;;;-1.77;50.53
64711;BME280;51139;45.626;6.850;2023-02-28T13:44:04;81468.63;;;-1.87;50.18
64711;BME280;51139;45.626;6.850;2023-02-28T13:46:32;81484.78;;;-2.14;50.48
64711;BME280;51139;45.626;6.850;2023-02-28T13:54:54;81494.81;;;-2.24;50.76
64711;BME280;51139;45.626;6.850;2023-02-28T13:57:53;81478.31;;;-1.69;50.14
64711;BME280;51139;45.626;6.850;2023-02-28T14:11:35;81490.47;;;-1.44;48.16
64711;BME280;51139;45.626;6.850;2023-02-28T14:14:02;81487.38;;;-1.24;48.03
64711;BME280;51139;45.626;6.850;2023-02-28T14:16:40;81489.84;;;-1.32;48.82
64711;BME280;51139;45.626;6.850;2023-02-28T14:19:24;81480.91;;;-1.69;49.55
64711;BME280;51139;45.626;6.850;2023-02-28T14:37:41;81471.84;;;-0.70;46.99
64711;BME280;51139;45.626;6.850;2023-02-28T14:40:20;81485.19;;;-1.20;48.97
64711;BME280;51139;45.626;6.850;2023-02-28T14:42:54;81481.41;;;-1.05;48.72
64711;BME280;51139;45.626;6.850;2023-02-28T14:45:22;81484.09;;;-0.97;49.42
64711;BME280;51139;45.626;6.850;2023-02-28T14:47:49;81486.44;;;-0.80;47.87
64711;BME280;51139;45.626;6.850;2023-02-28T14:50:22;81476.06;;;-0.53;48.17
64711;BME280;51139;45.626;6.850;2023-02-28T14:52:52;81464.56;;;-0.71;47.58
64711;BME280;51139;45.626;6.850;2023-02-28T14:55:19;81474.31;;;-0.91;47.50
64711;BME280;51139;45.626;6.850;2023-02-28T14:57:53;81484.66;;;-0.59;47.87
64711;BME280;51139;45.626;6.850;2023-02-28T15:00:29;81478.94;;;0.10;46.06
64711;BME280;51139;45.626;6.850;2023-02-28T15:02:57;81481.25;;;0.01;47.03
64711;BME280;51139;45.626;6.850;2023-02-28T15:05:27;81485.88;;;-0.33;47.16
64711;BME280;51139;45.626;6.850;2023-02-28T15:08:13;81489.66;;;-0.47;46.21
64711;BME280;51139;45.626;6.850;2023-02-28T15:11:00;81492.56;;;-0.10;47.20
64711;BME280;51139;45.626;6.850;2023-02-28T15:13:46;81495.47;;;-0.54;47.93
64711;BME280;51139;45.626;6.850;2023-02-28T15:18:58;81497.38;;;-0.55;49.41
64711;BME280;51139;45.626;6.850;2023-02-28T15:21:36;81493.66;;;-0.73;48.52
64711;BME280;51139;45.626;6.850;2023-02-28T15:26:38;81493.06;;;-1.12;49.22
64711;BME280;51139;45.626;6.850;2023-02-28T15:29:05;81504.59;;;-1.07;49.31
64711;BME280;51139;45.626;6.850;2023-02-28T15:31:34;81509.38;;;-1.44;50.39
64711;BME280;51139;45.626;6.850;2023-02-28T15:34:06;81497.97;;;-1.73;50.96
64711;BME280;51139;45.626;6.850;2023-02-28T15:36:34;81497.75;;;-1.76;51.04